Terminal Aerodrome Forecast
Issued by NWS

Home | Current Version | Previous Version | Text Only | Print | Product List | Glossary On
Versions: 1 2 3 4 5 6 7 8 9 10 11 12 13 14 15 16
000
FTUS46 KMTR 172300
TAFMRY
TAF
KMRY 172331Z 1800/1824 14005KT P6SM -RA SCT020 BKN035 OVC050
      TEMPO 1802/1806 4SM RA BKN020 OVC035
     FM180600 18005KT P6SM -SHRA BKN030 OVC040
     FM181500 VRB03KT P6SM VCSH BKN025 OVC035
     FM181900 25005KT P6SM SCT020 BKN040=

USA.gov is the U.S. government's official web portal to all federal, state and local government web resources and services.